Time;durP1;ratioP1;P1;durP2;ratioP2;P2;SDS_P1;SDS_P2;PMS_P1;PMS_P2;Temp;Humidity;BMP_temperature;BMP_pressure;BME280_temperature;BME280_humidity;BME280_pressure;Samples;Min_cycle;Max_cycle;Signal;HPM_P1;HPM_P2
2022/09/21 00:01:25;;;;;;;5.53;1.17;;;10.00;99.90;;;;;;4994542;28;20050;-79
2022/09/21 00:03:55;;;;;;;;;;;10.00;99.90;;;;;;4992302;28;20088;-79
2022/09/21 00:06:22;;;;;;;2.88;1.20;;;9.90;99.90;;;;;;4994315;28;19941;-78
2022/09/21 00:08:48;;;;;;;4.22;1.27;;;9.80;99.90;;;;;;4994321;28;20100;-79
2022/09/21 00:11:26;;;;;;;4.18;1.50;;;9.80;99.90;;;;;;4994550;28;20030;-78
2022/09/21 00:13:59;;;;;;;6.85;1.60;;;9.70;99.90;;;;;;4994220;28;20034;-78
2022/09/21 00:16:26;;;;;;;2.28;1.60;;;9.50;99.90;;;;;;4994608;28;20084;-78
2022/09/21 00:18:52;;;;;;;3.97;1.60;;;9.50;99.90;;;;;;4994190;28;20030;-79
2022/09/21 00:21:18;;;;;;;3.63;1.55;;;9.40;99.90;;;;;;4994296;28;20026;-79
2022/09/21 00:23:44;;;;;;;4.57;1.80;;;9.20;99.90;;;;;;4993979;28;20021;-79
2022/09/21 00:26:13;;;;;;;4.55;1.50;;;9.10;99.90;;;;;;4993971;28;20077;-78
2022/09/21 00:28:39;;;;;;;5.18;2.00;;;9.00;99.90;;;;;;4992698;28;20076;-78
2022/09/21 00:31:07;;;;;;;3.60;1.85;;;8.90;99.90;;;;;;4994567;28;20046;-79
2022/09/21 00:33:33;;;;;;;5.40;1.85;;;8.90;99.90;;;;;;4993686;28;20046;-79
2022/09/21 00:36:07;;;;;;;7.00;2.00;;;8.80;99.90;;;;;;4994036;28;20515;-78
2022/09/21 00:38:34;;;;;;;6.43;1.85;;;8.70;99.90;;;;;;4994187;28;20097;-78
2022/09/21 00:40:59;;;;;;;3.72;1.92;;;8.70;99.90;;;;;;5013490;28;20033;-79
2022/09/21 00:43:26;;;;;;;4.55;1.70;;;8.70;99.90;;;;;;5013324;28;20018;-78
2022/09/21 00:46:01;;;;;;;4.90;2.00;;;8.70;99.90;;;;;;5013136;28;20362;-78
2022/09/21 00:48:28;;;;;;;5.88;1.88;;;8.60;99.90;;;;;;5013342;28;20021;-78
2022/09/21 00:51:00;;;;;;;5.97;2.10;;;8.50;99.90;;;;;;5013173;28;20460;-78
2022/09/21 00:53:27;;;;;;;8.57;2.35;;;8.40;99.90;;;;;;5013053;28;20390;-78
2022/09/21 00:55:56;;;;;;;9.80;2.20;;;8.40;99.90;;;;;;5013201;28;20026;-78
2022/09/21 00:58:27;;;;;;;4.32;1.95;;;8.40;99.90;;;;;;4996270;28;20064;-78
2022/09/21 01:00:54;;;;;;;5.00;1.83;;;8.30;99.90;;;;;;4993414;28;20437;-79
2022/09/21 01:03:22;;;;;;;6.45;1.98;;;8.20;99.90;;;;;;4993338;28;20018;-79
2022/09/21 01:05:47;;;;;;;4.15;2.08;;;8.20;99.90;;;;;;4993317;28;20033;-78
2022/09/21 01:08:15;;;;;;;3.92;2.00;;;8.20;99.90;;;;;;4993369;28;20034;-78
2022/09/21 01:11:07;;;;;;;2.92;1.90;;;8.10;99.90;;;;;;4993079;28;20018;-79
2022/09/21 01:13:35;;;;;;;5.30;2.35;;;8.10;99.90;;;;;;4993404;28;20338;-78
2022/09/21 01:16:05;;;;;;;7.32;1.98;;;8.00;99.90;;;;;;4993030;28;20081;-78
2022/09/21 01:18:57;;;;;;;3.75;2.08;;;8.00;99.90;;;;;;4993123;28;20038;-78
2022/09/21 01:21:26;;;;;;;3.60;2.15;;;8.00;99.90;;;;;;4990801;28;20113;-79
2022/09/21 01:23:58;;;;;;;2.53;1.75;;;7.90;99.90;;;;;;4992958;28;20417;-78
2022/09/21 01:26:24;;;;;;;3.92;2.03;;;8.00;1.00;;;;;;4993067;28;20521;-78
2022/09/21 01:29:37;;;;;;;6.45;2.22;;;8.00;1.00;;;;;;4993115;28;20106;-78
2022/09/21 01:32:06;;;;;;;3.50;2.17;;;7.90;1.00;;;;;;4969879;28;20046;-78
2022/09/21 01:34:46;;;;;;;4.28;2.15;;;7.80;1.00;;;;;;4992555;28;20046;-78
2022/09/21 01:37:16;;;;;;;;;;;7.70;1.00;;;;;;4993774;28;20038;-79
2022/09/21 01:39:46;;;;;;;4.38;1.73;;;7.70;1.00;;;;;;4992932;28;19914;-78
2022/09/21 01:42:14;;;;;;;9.07;2.00;;;7.80;1.00;;;;;;4992985;28;20373;-78
2022/09/21 01:44:43;;;;;;;7.38;2.03;;;7.80;1.00;;;;;;4992900;28;20098;-78
2022/09/21 01:47:13;;;;;;;5.13;1.90;;;7.80;1.00;;;;;;4992756;28;20046;-78
2022/09/21 01:49:53;;;;;;;4.05;1.60;;;7.70;1.00;;;;;;4992693;28;20041;-78
2022/09/21 01:52:37;;;;;;;4.15;1.80;;;7.70;1.00;;;;;;4993004;28;20026;-78
2022/09/21 01:55:08;;;;;;;2.65;1.73;;;7.60;1.00;;;;;;4973228;28;20027;-78
2022/09/21 01:57:51;;;;;;;3.70;1.70;;;7.50;1.00;;;;;;4974755;28;20371;-78
2022/09/21 02:00:17;;;;;;;3.92;1.92;;;7.40;1.00;;;;;;4992292;28;20042;-78
2022/09/21 02:03:01;;;;;;;5.20;1.83;;;7.50;1.00;;;;;;4992643;28;20030;-78
2022/09/21 02:05:29;;;;;;;5.80;1.80;;;7.50;1.00;;;;;;4992664;28;20026;-78
2022/09/21 02:07:55;;;;;;;3.38;1.60;;;7.40;1.00;;;;;;4992659;28;20018;-78
2022/09/21 02:10:32;;;;;;;4.95;1.67;;;7.40;1.00;;;;;;4993997;28;20035;-78
2022/09/21 02:13:00;;;;;;;3.85;1.70;;;7.50;1.00;;;;;;4996350;28;20457;-78
2022/09/21 02:15:53;;;;;;;3.53;1.20;;;7.40;1.00;;;;;;4996229;28;20548;-78
2022/09/21 02:19:01;;;;;;;2.67;1.45;;;7.40;1.00;;;;;;4996233;28;20026;-78
2022/09/21 02:21:26;;;;;;;3.28;1.52;;;7.30;1.00;;;;;;4995865;28;20405;-78
2022/09/21 02:24:05;;;;;;;4.35;1.45;;;7.20;1.00;;;;;;4996206;28;20030;-78
2022/09/21 02:26:49;;;;;;;5.35;1.80;;;7.10;1.00;;;;;;4996016;28;20022;-78
2022/09/21 02:29:28;;;;;;;2.13;1.38;;;7.10;1.00;;;;;;4996239;28;20022;-78
2022/09/21 02:32:16;;;;;;;2.75;1.45;;;6.90;1.00;;;;;;4996355;28;20015;-78
2022/09/21 02:34:46;;;;;;;5.22;1.55;;;6.90;1.00;;;;;;4995704;28;20050;-78
2022/09/21 02:37:18;;;;;;;3.88;1.58;;;6.90;1.00;;;;;;4993659;28;20116;-78
2022/09/21 02:39:54;;;;;;;2.42;1.55;;;6.80;1.00;;;;;;4995863;28;20720;-78
2022/09/21 02:42:26;;;;;;;4.93;1.50;;;6.90;1.00;;;;;;4980956;28;20022;-78
2022/09/21 02:45:06;;;;;;;4.93;1.50;;;6.90;1.00;;;;;;4985714;28;20026;-78
2022/09/21 02:47:40;;;;;;;5.88;1.60;;;6.80;1.00;;;;;;4996158;28;20023;-78
2022/09/21 02:50:14;;;;;;;2.50;1.65;;;6.80;1.00;;;;;;4995890;28;20097;-78
2022/09/21 02:52:42;;;;;;;4.47;1.80;;;6.80;1.00;;;;;;4994941;28;20616;-77
2022/09/21 02:55:09;;;;;;;3.47;2.05;;;6.70;1.00;;;;;;4996009;28;20108;-77
2022/09/21 02:57:36;;;;;;;3.55;1.73;;;6.70;1.00;;;;;;4997530;28;20027;-78
2022/09/21 03:00:05;;;;;;;3.40;1.77;;;6.70;1.00;;;;;;4995737;28;20032;-77
2022/09/21 03:02:42;;;;;;;4.75;1.80;;;6.70;1.00;;;;;;4995778;28;20034;-78
2022/09/21 03:05:09;;;;;;;6.60;1.83;;;6.60;1.00;;;;;;4998784;28;20057;-77
2022/09/21 03:07:35;;;;;;;9.32;1.88;;;6.60;1.00;;;;;;5007956;28;20026;-77
2022/09/21 03:10:01;;;;;;;4.88;2.22;;;6.90;1.00;;;;;;5014778;28;20664;-78
2022/09/21 03:12:27;;;;;;;3.50;1.90;;;6.80;1.00;;;;;;5005374;28;20101;-78
2022/09/21 03:14:53;;;;;;;3.58;2.08;;;6.80;1.00;;;;;;4995210;28;20168;-77
2022/09/21 03:17:18;;;;;;;5.80;1.90;;;6.70;1.00;;;;;;4995190;28;20054;-78
2022/09/21 03:19:44;;;;;;;7.68;1.77;;;6.80;1.00;;;;;;4994854;28;20027;-78
2022/09/21 03:22:10;;;;;;;4.60;1.63;;;6.60;1.00;;;;;;4994720;28;20034;-78
2022/09/21 03:24:44;;;;;;;4.53;1.80;;;6.60;1.00;;;;;;4994938;28;20469;-78
2022/09/21 03:27:10;;;;;;;4.03;1.80;;;6.60;1.00;;;;;;4994878;28;20068;-78
2022/09/21 03:29:36;;;;;;;2.38;1.70;;;6.60;1.00;;;;;;4995156;28;20027;-78
2022/09/21 03:32:02;;;;;;;4.80;1.83;;;6.50;1.00;;;;;;4994738;28;20045;-78
2022/09/21 03:34:28;;;;;;;6.72;1.92;;;6.50;1.00;;;;;;4994477;28;20140;-78
2022/09/21 03:36:54;;;;;;;8.88;2.60;;;6.50;1.00;;;;;;4994762;28;20066;-77
2022/09/21 03:39:19;;;;;;;3.88;2.40;;;6.50;1.00;;;;;;4998765;28;20077;-78
2022/09/21 03:41:45;;;;;;;5.40;1.70;;;6.60;1.00;;;;;;5013993;28;20022;-78
2022/09/21 03:44:11;;;;;;;4.63;1.75;;;6.60;1.00;;;;;;5014138;28;20022;-78
2022/09/21 03:46:36;;;;;;;5.07;2.00;;;6.60;1.00;;;;;;4999290;28;20466;-78
2022/09/21 03:49:02;;;;;;;7.63;2.20;;;6.50;1.00;;;;;;4994362;28;20034;-78
2022/09/21 03:51:30;;;;;;;4.07;2.15;;;6.70;1.00;;;;;;4994336;28;20022;-78
2022/09/21 03:53:56;;;;;;;4.28;2.42;;;7.00;1.00;;;;;;4977652;28;20037;-78
2022/09/21 03:56:21;;;;;;;6.85;2.47;;;7.10;1.00;;;;;;4975007;28;20026;-78
2022/09/21 03:58:47;;;;;;;8.43;2.47;;;7.10;1.00;;;;;;4974745;28;20393;-78
2022/09/21 04:01:12;;;;;;;5.78;2.63;;;7.20;1.00;;;;;;4995830;28;20038;-78
2022/09/21 04:03:38;;;;;;;11.13;2.05;;;7.30;1.00;;;;;;5013735;28;20026;-78
2022/09/21 04:06:11;;;;;;;11.63;2.80;;;7.30;1.00;;;;;;5013727;28;20022;-78
2022/09/21 04:08:37;;;;;;;9.38;2.92;;;7.40;1.00;;;;;;5013915;28;20064;-78
2022/09/21 04:11:14;;;;;;;5.55;2.80;;;7.40;1.00;;;;;;5013800;28;20038;-78
2022/09/21 04:13:41;;;;;;;9.05;2.88;;;7.40;1.00;;;;;;4974571;28;20043;-78
2022/09/21 04:16:08;;;;;;;11.90;3.15;;;7.70;1.00;;;;;;4988458;28;20462;-78
2022/09/21 04:18:34;;;;;;;12.27;3.55;;;8.00;1.00;;;;;;4993637;28;20026;-78
2022/09/21 04:21:00;;;;;;;10.60;3.05;;;8.00;1.00;;;;;;4994122;28;20381;-78
2022/09/21 04:23:26;;;;;;;7.07;2.85;;;7.80;1.00;;;;;;5013479;28;20465;-79
2022/09/21 04:25:53;;;;;;;6.40;2.78;;;7.70;6.70;;;;;;5013598;28;20021;-79
2022/09/21 04:28:19;;;;;;;14.68;3.83;;;7.50;17.40;;;;;;5013065;28;20628;-80
2022/09/21 04:30:45;;;;;;;11.38;3.47;;;7.80;6.30;;;;;;5013399;28;20029;-79
2022/09/21 04:33:10;;;;;;;12.18;3.67;;;8.00;8.80;;;;;;5012192;28;20483;-79
2022/09/21 04:35:36;;;;;;;9.32;3.83;;;8.10;15.80;;;;;;5013305;28;20076;-79
2022/09/21 04:38:02;;;;;;;7.20;3.17;;;8.00;17.90;;;;;;5012799;28;20029;-80
2022/09/21 04:40:28;;;;;;;4.65;2.78;;;8.00;21.60;;;;;;5013063;28;20025;-79
2022/09/21 04:42:54;;;;;;;5.55;2.80;;;8.00;25.10;;;;;;5012271;28;20224;-79
2022/09/21 04:45:20;;;;;;;8.50;2.58;;;7.80;30.20;;;;;;5012909;28;20149;-79
2022/09/21 04:47:46;;;;;;;4.10;2.22;;;7.60;38.50;;;;;;5006085;28;20026;-79
2022/09/21 04:50:12;;;;;;;8.70;2.63;;;7.40;48.10;;;;;;5007089;28;20018;-79
2022/09/21 04:52:38;;;;;;;4.38;2.17;;;7.30;50.80;;;;;;5001928;28;20113;-79
2022/09/21 04:55:05;;;;;;;3.85;2.03;;;7.30;46.40;;;;;;4992904;28;20050;-80
2022/09/21 04:57:31;;;;;;;2.80;1.95;;;7.30;43.30;;;;;;4993100;28;20032;-79
2022/09/21 04:59:56;;;;;;;2.58;1.80;;;7.10;46.90;;;;;;4992923;28;20022;-79
2022/09/21 05:02:22;;;;;;;2.67;1.80;;;7.00;47.00;;;;;;4993211;28;20513;-79
2022/09/21 05:04:48;;;;;;;5.60;1.65;;;7.00;45.40;;;;;;4993174;28;20018;-80
2022/09/21 05:07:14;;;;;;;4.55;2.00;;;6.90;45.30;;;;;;4993501;28;20105;-80
2022/09/21 05:12:24;;;;;;;5.30;2.50;;;6.80;41.40;;;;;;4993270;28;20033;-80
2022/09/21 05:14:50;;;;;;;3.17;2.03;;;6.90;36.60;;;;;;4992994;28;20022;-79
2022/09/21 05:17:15;;;;;;;7.72;1.80;;;6.80;38.60;;;;;;4993059;28;20485;-79
2022/09/21 05:19:41;;;;;;;4.80;1.83;;;6.80;37.20;;;;;;4992711;28;20627;-79
2022/09/21 05:22:07;;;;;;;3.67;2.13;;;7.00;29.80;;;;;;4992778;28;20034;-77
2022/09/21 05:24:33;;;;;;;3.15;1.55;;;6.90;38.20;;;;;;4992494;28;20154;-77
2022/09/21 05:26:58;;;;;;;3.67;1.70;;;6.80;40.40;;;;;;5002768;28;20073;-77
2022/09/21 05:29:24;;;;;;;2.35;1.63;;;6.80;41.50;;;;;;4992367;28;20042;-77
2022/09/21 05:32:09;;;;;;;5.93;2.22;;;6.80;41.40;;;;;;4992520;28;20095;-76
2022/09/21 05:34:56;;;;;;;5.65;1.90;;;6.80;42.40;;;;;;4992265;28;20066;-76
2022/09/21 05:37:50;;;;;;;3.80;1.85;;;6.70;46.80;;;;;;4992713;28;20409;-77
2022/09/21 05:40:17;;;;;;;4.93;2.05;;;6.70;44.30;;;;;;4991620;28;20527;-77
2022/09/21 05:42:42;;;;;;;7.22;2.58;;;6.80;40.40;;;;;;4992365;28;20019;-77
2022/09/21 05:45:16;;;;;;;14.88;3.42;;;7.00;35.00;;;;;;4995363;28;20029;-77
2022/09/21 05:48:02;;;;;;;7.28;3.20;;;7.50;22.30;;;;;;4996566;28;20030;-77
2022/09/21 05:50:39;;;;;;;10.02;3.20;;;7.70;35.10;;;;;;4996605;28;20030;-77
2022/09/21 05:53:04;;;;;;;12.00;3.58;;;7.90;46.60;;;;;;4996422;28;20105;-76
2022/09/21 05:55:51;;;;;;;8.05;3.47;;;8.00;58.40;;;;;;4996041;28;20164;-77
2022/09/21 05:58:33;;;;;;;5.97;3.30;;;8.00;68.40;;;;;;4996247;28;20365;-77
2022/09/21 06:01:14;;;;;;;11.07;4.18;;;8.40;59.80;;;;;;4996122;28;20037;-77
2022/09/21 06:03:41;;;;;;;5.75;3.13;;;8.40;75.10;;;;;;4996171;28;20026;-77
2022/09/21 06:06:08;;;;;;;9.63;4.15;;;8.40;79.30;;;;;;4995627;28;20026;-77
2022/09/21 06:08:34;;;;;;;5.57;3.30;;;8.40;80.70;;;;;;4995952;28;20030;-77
2022/09/21 06:11:00;;;;;;;5.05;2.67;;;8.40;76.30;;;;;;4995720;28;20026;-78
2022/09/21 06:13:26;;;;;;;6.28;2.80;;;8.30;74.50;;;;;;4995694;28;20072;-77
2022/09/21 06:15:52;;;;;;;5.30;2.80;;;8.40;69.60;;;;;;4995784;28;20098;-77
2022/09/21 06:18:18;;;;;;;6.25;2.83;;;8.70;64.70;;;;;;4995977;28;20058;-77
2022/09/21 06:20:45;;;;;;;3.53;2.58;;;8.60;60.90;;;;;;4995486;28;20427;-77
2022/09/21 06:23:12;;;;;;;5.53;3.30;;;8.80;57.10;;;;;;4995324;28;20137;-77
2022/09/21 06:25:38;;;;;;;9.40;2.80;;;9.10;52.30;;;;;;4995578;28;20038;-77
2022/09/21 06:28:09;;;;;;;7.40;2.90;;;9.10;51.50;;;;;;4995403;28;20033;-77
2022/09/21 06:30:35;;;;;;;6.57;3.60;;;9.20;37.90;;;;;;4995449;28;20105;-77
2022/09/21 06:33:02;;;;;;;7.70;2.70;;;9.40;37.70;;;;;;4995085;28;20130;-77
2022/09/21 06:35:28;;;;;;;6.80;2.50;;;9.60;35.70;;;;;;4995315;28;20373;-77
2022/09/21 06:37:59;;;;;;;9.60;3.42;;;9.60;21.50;;;;;;5004926;28;20560;-79
2022/09/21 06:40:32;;;;;;;8.18;2.75;;;9.70;13.00;;;;;;5014143;28;20022;-78
2022/09/21 06:42:59;;;;;;;4.05;2.47;;;9.70;9.60;;;;;;4998434;28;20383;-77
2022/09/21 06:45:26;;;;;;;8.63;2.83;;;9.70;5.30;;;;;;4995357;28;20584;-77
2022/09/21 06:47:51;;;;;;;9.63;2.97;;;9.90;2.20;;;;;;4995260;28;20037;-77
2022/09/21 06:50:17;;;;;;;4.43;2.78;;;9.90;1.00;;;;;;4995230;28;20030;-78
2022/09/21 06:52:43;;;;;;;4.70;2.70;;;10.00;1.00;;;;;;4999830;28;20033;-77
2022/09/21 06:55:09;;;;;;;5.57;1.98;;;10.20;1.00;;;;;;5013900;28;20019;-77
2022/09/21 06:57:37;;;;;;;3.92;2.40;;;10.40;6.60;;;;;;5010578;28;20022;-77
2022/09/21 07:00:04;;;;;;;7.00;3.40;;;10.60;9.10;;;;;;4995038;28;20065;-77
2022/09/21 07:02:30;;;;;;;6.95;3.00;;;15.30;35.60;;;;;;4991744;28;20056;-77
2022/09/21 07:04:57;;;;;;;7.82;2.83;;;19.40;99.90;;;;;;4975024;28;20030;-78
2022/09/21 07:07:23;;;;;;;6.05;2.55;;;22.30;99.90;;;;;;4975349;28;20235;-78
2022/09/21 07:09:48;;;;;;;4.45;2.10;;;24.70;99.90;;;;;;4974889;28;20023;-78
2022/09/21 07:12:14;;;;;;;7.30;1.98;;;27.10;92.40;;;;;;4975321;28;20677;-79
2022/09/21 07:14:40;;;;;;;9.35;1.77;;;28.50;1.00;;;;;;4975477;28;20022;-79
2022/09/21 07:17:07;;;;;;;8.95;2.60;;;30.70;1.00;;;;;;4975667;28;20538;-79
2022/09/21 07:19:32;;;;;;;4.93;2.38;;;32.10;1.00;;;;;;4975728;28;20018;-79
2022/09/21 07:21:58;;;;;;;4.60;2.58;;;33.20;1.00;;;;;;4975293;28;20106;-79
2022/09/21 07:24:23;;;;;;;5.00;2.33;;;33.90;1.00;;;;;;4976927;28;20034;-83
2022/09/21 07:26:49;;;;;;;4.93;2.30;;;34.90;1.00;;;;;;4975915;28;20094;-79
2022/09/21 07:29:14;;;;;;;4.65;1.98;;;35.00;1.00;;;;;;4974956;28;20062;-79
2022/09/21 07:31:43;;;;;;;6.03;1.75;;;35.50;1.00;;;;;;4975385;28;20062;-79
2022/09/21 07:34:09;;;;;;;4.35;1.88;;;36.10;1.00;;;;;;4974738;28;20102;-79
2022/09/21 07:36:35;;;;;;;6.78;1.40;;;36.10;1.00;;;;;;4975366;28;20022;-79
2022/09/21 07:39:01;;;;;;;3.72;1.60;;;36.20;1.00;;;;;;4975139;28;20027;-79
2022/09/21 07:41:27;;;;;;;7.90;1.48;;;37.40;1.00;;;;;;4975449;28;20509;-80
2022/09/21 07:43:53;;;;;;;3.53;1.10;;;37.60;1.00;;;;;;4975099;28;20050;-79
2022/09/21 07:46:19;;;;;;;2.20;1.10;;;38.60;1.00;;;;;;4974860;28;20030;-80
2022/09/21 07:48:45;;;;;;;4.13;1.25;;;38.70;1.00;;;;;;4975221;28;20027;-80
2022/09/21 07:51:13;;;;;;;3.25;1.20;;;39.10;1.00;;;;;;4989679;28;20037;-79
2022/09/21 07:53:41;;;;;;;5.63;1.25;;;39.70;1.00;;;;;;4994228;28;20018;-80
2022/09/21 07:56:13;;;;;;;3.00;1.10;;;40.30;1.00;;;;;;4993998;28;20022;-80
2022/09/21 08:01:24;;;;;;;3.10;0.90;;;41.40;1.00;;;;;;4996753;28;20045;-83
2022/09/21 08:03:51;;;;;;;6.65;1.17;;;40.40;1.00;;;;;;5008965;28;20515;-81
2022/09/21 08:06:17;;;;;;;2.25;0.90;;;40.80;1.00;;;;;;4998320;28;20499;-80
2022/09/21 08:08:43;;;;;;;3.50;0.82;;;40.00;1.00;;;;;;5004437;28;20105;-81
2022/09/21 08:11:10;;;;;;;3.25;0.82;;;41.20;1.00;;;;;;5007683;28;20065;-81
2022/09/21 08:13:36;;;;;;;1.52;0.60;;;41.30;1.00;;;;;;4987097;28;20010;-81
2022/09/21 08:16:02;;;;;;;1.77;0.60;;;41.50;1.00;;;;;;4977544;28;20029;-87
2022/09/21 08:18:28;;;;;;;1.40;0.40;;;42.10;1.00;;;;;;4975835;28;20057;-89
2022/09/21 08:20:58;;;;;;;2.58;0.70;;;42.70;1.00;;;;;;4999484;28;20034;-88
2022/09/21 08:23:27;;;;;;;2.53;0.70;;;42.40;1.00;;;;;;4999647;28;20026;-87
2022/09/21 08:25:59;;;;;;;5.78;0.80;;;41.60;1.00;;;;;;4984105;28;20501;-83
2022/09/21 08:28:25;;;;;;;3.35;0.82;;;41.80;1.00;;;;;;4974614;28;20120;-80
2022/09/21 08:30:50;;;;;;;2.03;0.60;;;40.70;1.00;;;;;;4974063;28;20443;-80
2022/09/21 08:33:16;;;;;;;1.80;0.70;;;40.40;1.00;;;;;;4973603;28;20058;-82
2022/09/21 08:35:41;;;;;;;3.65;0.55;;;41.80;1.00;;;;;;4988194;28;20026;-82
2022/09/21 08:38:07;;;;;;;3.15;0.63;;;42.90;1.00;;;;;;4993479;28;20436;-80
2022/09/21 08:40:33;;;;;;;2.13;0.70;;;41.50;1.00;;;;;;4993445;28;20525;-81
2022/09/21 08:43:14;;;;;;;2.95;0.55;;;40.60;1.00;;;;;;4993677;28;20025;-80
2022/09/21 08:45:44;;;;;;;3.22;0.88;;;42.00;1.00;;;;;;4993454;28;20101;-81
2022/09/21 08:48:28;;;;;;;3.88;0.90;;;43.10;1.00;;;;;;4993233;28;20018;-81
2022/09/21 08:50:56;;;;;;;1.75;0.60;;;41.70;1.00;;;;;;4993407;28;20085;-81
2022/09/21 08:53:29;;;;;;;6.25;0.75;;;42.80;1.00;;;;;;4992731;28;20023;-80
2022/09/21 08:55:56;;;;;;;3.33;0.68;;;43.10;1.00;;;;;;4973451;28;20057;-80
2022/09/21 08:58:30;;;;;;;3.03;0.80;;;43.70;1.00;;;;;;4973490;28;20631;-80
2022/09/21 09:01:46;;;;;;;2.80;0.73;;;43.80;1.00;;;;;;4973577;28;20466;-81
2022/09/21 09:04:21;;;;;;;2.45;0.65;;;43.20;1.00;;;;;;4973544;28;20564;-79
2022/09/21 09:07:03;;;;;;;3.22;0.70;;;40.90;1.00;;;;;;4973424;28;20023;-80
2022/09/21 09:09:59;;;;;;;2.92;0.80;;;41.80;1.00;;;;;;4973502;28;20477;-79
2022/09/21 09:12:55;;;;;;;4.60;0.82;;;35.10;1.00;;;;;;4973137;28;20031;-80
2022/09/21 09:15:47;;;;;;;2.33;0.60;;;36.00;1.00;;;;;;4973461;28;20458;-80
2022/09/21 09:18:25;;;;;;;5.45;0.60;;;38.30;1.00;;;;;;4971946;28;20026;-80
2022/09/21 09:21:04;;;;;;;2.83;0.60;;;39.50;1.00;;;;;;4973365;28;20089;-83
2022/09/21 09:24:05;;;;;;;4.95;0.95;;;41.50;1.00;;;;;;4973224;28;20030;-80
2022/09/21 09:26:47;;;;;;;1.15;0.40;;;41.60;1.00;;;;;;4973614;28;20142;-81
2022/09/21 09:29:32;;;;;;;3.47;0.70;;;43.20;1.00;;;;;;4976938;28;20465;-79
2022/09/21 09:32:00;;;;;;;2.60;0.35;;;43.80;1.00;;;;;;4992667;28;20026;-79
2022/09/21 09:34:41;;;;;;;2.33;0.60;;;40.70;1.00;;;;;;4991983;28;20049;-80
2022/09/21 09:37:14;;;;;;;3.10;0.50;;;37.40;1.00;;;;;;5011348;28;20065;-79
2022/09/21 09:39:41;;;;;;;2.00;0.45;;;40.80;1.00;;;;;;4975248;28;20038;-80
2022/09/21 09:42:36;;;;;;;2.63;0.95;;;40.80;1.00;;;;;;4992181;28;20022;-79
2022/09/21 09:45:47;;;;;;;2.17;0.70;;;41.30;1.00;;;;;;4985053;28;20038;-80
2022/09/21 09:48:18;;;;;;;2.35;0.50;;;42.90;1.00;;;;;;4951131;29;20079;-80
2022/09/21 09:50:44;;;;;;;3.03;0.73;;;41.90;1.00;;;;;;4950841;29;20114;-79
2022/09/21 09:53:14;;;;;;;2.28;0.50;;;38.30;1.00;;;;;;4973529;28;20461;-79
2022/09/21 09:55:49;;;;;;;4.10;0.68;;;34.70;1.00;;;;;;4992113;28;20018;-79
2022/09/21 09:58:47;;;;;;;2.70;0.63;;;31.40;1.00;;;;;;4991645;28;20457;-79
2022/09/21 10:01:35;;;;;;;4.30;0.82;;;28.90;1.00;;;;;;4992003;28;20033;-79
2022/09/21 10:04:07;;;;;;;4.85;0.70;;;27.30;1.00;;;;;;4991932;28;20080;-79
2022/09/21 10:06:33;;;;;;;3.15;0.60;;;26.20;1.00;;;;;;4991783;28;20098;-80
2022/09/21 10:08:58;;;;;;;4.30;0.60;;;25.00;1.00;;;;;;4991937;28;20471;-79
2022/09/21 10:11:34;;;;;;;3.75;0.68;;;24.40;1.00;;;;;;4991751;28;20026;-80
2022/09/21 10:14:09;;;;;;;3.03;0.70;;;23.70;1.00;;;;;;4991745;28;20053;-79
2022/09/21 10:16:40;;;;;;;2.28;0.40;;;24.00;1.00;;;;;;4991733;28;20026;-79
2022/09/21 10:19:16;;;;;;;2.45;0.50;;;23.20;1.00;;;;;;4992053;28;20030;-79
2022/09/21 10:21:42;;;;;;;3.22;0.70;;;23.50;1.00;;;;;;4991701;28;20025;-80
2022/09/21 10:24:17;;;;;;;3.55;0.88;;;23.80;1.00;;;;;;4991883;28;20072;-79
2022/09/21 10:26:47;;;;;;;3.75;0.85;;;22.80;1.00;;;;;;4991674;28;20026;-80
2022/09/21 10:29:43;;;;;;;3.83;0.73;;;22.80;1.00;;;;;;4992137;28;20460;-80
2022/09/21 10:32:11;;;;;;;4.72;0.85;;;22.90;1.00;;;;;;4995071;28;20022;-79
2022/09/21 10:34:40;;;;;;;3.55;0.82;;;22.60;1.00;;;;;;4994649;28;20108;-79
2022/09/21 10:37:27;;;;;;;5.23;0.70;;;22.00;1.00;;;;;;4995980;28;20056;-79
2022/09/21 10:39:53;;;;;;;4.97;0.50;;;22.00;1.00;;;;;;4995671;28;20077;-79
2022/09/21 10:42:20;;;;;;;4.50;0.80;;;22.60;1.00;;;;;;4995904;28;20031;-79
2022/09/21 10:44:52;;;;;;;5.28;0.63;;;23.30;1.00;;;;;;4991010;28;20018;-78
2022/09/21 10:47:30;;;;;;;4.47;0.80;;;23.50;1.00;;;;;;5011141;28;20092;-79
2022/09/21 10:49:59;;;;;;;3.88;0.77;;;23.70;1.00;;;;;;5015115;28;20014;-79
2022/09/21 10:52:33;;;;;;;4.95;0.70;;;23.00;1.00;;;;;;5015173;28;20472;-79
2022/09/21 10:54:59;;;;;;;2.97;0.70;;;22.30;1.00;;;;;;5014852;28;20105;-79
2022/09/21 10:57:27;;;;;;;5.75;0.75;;;21.80;1.00;;;;;;5014795;28;20429;-79
2022/09/21 10:59:52;;;;;;;6.30;0.75;;;21.50;1.00;;;;;;5014594;28;20043;-79
2022/09/21 11:02:37;;;;;;;2.63;0.50;;;21.10;1.00;;;;;;5014382;28;20022;-79
2022/09/21 11:05:15;;;;;;;2.63;0.55;;;20.70;1.00;;;;;;5014979;28;20073;-78
2022/09/21 11:07:54;;;;;;;4.38;0.90;;;20.60;1.00;;;;;;5015086;28;20030;-79
2022/09/21 11:10:39;;;;;;;3.83;0.57;;;20.30;1.00;;;;;;5015166;28;20029;-79
2022/09/21 11:13:04;;;;;;;5.47;0.77;;;20.60;1.00;;;;;;5014417;28;20072;-79
2022/09/21 11:15:45;;;;;;;2.95;0.68;;;20.50;1.00;;;;;;5014002;28;20053;-77
2022/09/21 11:18:21;;;;;;;2.47;0.43;;;20.60;1.00;;;;;;4975180;28;20035;-78
2022/09/21 11:20:58;;;;;;;3.90;0.47;;;20.50;1.00;;;;;;4973506;28;20062;-77
2022/09/21 11:23:32;;;;;;;5.07;0.68;;;20.80;1.00;;;;;;4975028;28;20074;-77
2022/09/21 11:26:50;;;;;;;3.33;0.70;;;21.20;1.00;;;;;;4974945;28;20533;-77
2022/09/21 11:29:32;;;;;;;3.38;0.50;;;20.10;1.00;;;;;;4963063;28;20091;-77
2022/09/21 11:32:28;;;;;;;3.00;0.45;;;19.60;1.00;;;;;;4974855;28;20066;-77
2022/09/21 11:35:16;;;;;;;5.22;1.60;;;20.40;1.00;;;;;;4974180;28;20039;-77
2022/09/21 11:38:12;;;;;;;2.15;0.40;;;21.30;1.00;;;;;;4974522;28;20109;-77
2022/09/21 11:40:55;;;;;;;3.40;0.68;;;21.50;1.00;;;;;;4966535;28;20046;-77
2022/09/21 11:43:42;;;;;;;2.55;0.60;;;22.00;1.00;;;;;;4973143;28;20050;-77
2022/09/21 11:46:34;;;;;;;2.78;0.50;;;22.00;1.00;;;;;;5012427;28;20026;-77
2022/09/21 11:49:26;;;;;;;5.68;0.70;;;21.70;1.00;;;;;;4965512;28;20370;-76
2022/09/21 11:52:12;;;;;;;3.15;0.65;;;21.10;1.00;;;;;;4974131;28;20029;-77
2022/09/21 11:54:52;;;;;;;1.95;0.35;;;21.70;1.00;;;;;;4984269;28;20065;-77
2022/09/21 11:57:27;;;;;;;3.90;0.60;;;21.70;1.00;;;;;;4974276;28;20031;-77
2022/09/21 12:00:20;;;;;;;1.70;0.43;;;22.30;1.00;;;;;;4986865;28;20077;-77
2022/09/21 12:03:23;;;;;;;4.15;0.65;;;22.80;1.00;;;;;;4993871;28;20026;-77
2022/09/21 12:06:09;;;;;;;6.03;0.70;;;21.80;1.00;;;;;;4993427;28;20031;-77
2022/09/21 12:08:49;;;;;;;2.17;0.60;;;23.00;1.00;;;;;;4993052;28;20097;-77
2022/09/21 12:11:43;;;;;;;3.55;0.60;;;23.20;1.00;;;;;;4999127;28;20033;-77
2022/09/21 12:14:27;;;;;;;2.92;0.57;;;23.60;1.00;;;;;;5013011;28;20045;-77
2022/09/21 12:17:08;;;;;;;1.73;0.40;;;22.80;1.00;;;;;;5013001;28;20028;-77
2022/09/21 12:19:44;;;;;;;4.45;0.60;;;23.00;1.00;;;;;;5012638;28;20037;-77
2022/09/21 12:22:20;;;;;;;3.05;0.82;;;22.50;1.00;;;;;;5012842;28;20037;-77
2022/09/21 12:24:57;;;;;;;4.82;0.60;;;22.90;1.00;;;;;;5012725;28;20492;-77
2022/09/21 12:27:38;;;;;;;2.70;0.60;;;23.30;1.00;;;;;;5012672;28;20095;-77
2022/09/21 12:30:19;;;;;;;2.78;0.60;;;23.10;1.00;;;;;;5012968;28;20053;-77
2022/09/21 12:32:52;;;;;;;2.13;0.60;;;23.40;1.00;;;;;;5012664;28;20120;-77
2022/09/21 12:35:58;;;;;;;1.50;0.32;;;22.20;1.00;;;;;;5012178;28;20050;-77
2022/09/21 12:38:30;;;;;;;4.32;0.57;;;22.70;1.00;;;;;;5009578;28;20100;-77
2022/09/21 12:41:00;;;;;;;4.28;0.70;;;23.10;1.00;;;;;;5012691;28;20104;-77
2022/09/21 12:43:38;;;;;;;1.80;0.60;;;23.00;1.00;;;;;;5012783;28;20436;-77
2022/09/21 12:46:24;;;;;;;2.40;0.45;;;22.90;1.00;;;;;;5012330;28;20022;-76
2022/09/21 12:48:50;;;;;;;2.38;0.55;;;22.30;1.00;;;;;;5012328;28;20034;-76
2022/09/21 12:51:28;;;;;;;3.05;0.50;;;22.70;1.00;;;;;;5012342;28;20029;-77
2022/09/21 12:53:57;;;;;;;1.70;0.50;;;22.70;1.00;;;;;;5012135;28;20025;-77
2022/09/21 12:56:42;;;;;;;1.80;0.50;;;22.40;1.00;;;;;;5001371;28;20026;-77
2022/09/21 12:59:23;;;;;;;2.80;0.60;;;22.60;1.00;;;;;;4992479;28;20121;-77
2022/09/21 13:02:04;;;;;;;2.72;0.80;;;22.60;1.00;;;;;;4991687;28;20073;-77
2022/09/21 13:04:52;;;;;;;4.85;0.70;;;22.80;1.00;;;;;;4992267;28;20110;-77
2022/09/21 13:07:37;;;;;;;3.72;0.65;;;23.20;1.00;;;;;;4972869;28;20129;-77
2022/09/21 13:10:17;;;;;;;0.90;0.43;;;23.00;1.00;;;;;;4996974;28;20028;-78
2022/09/21 13:12:46;;;;;;;5.68;0.88;;;22.80;1.00;;;;;;5002388;28;20034;-77
2022/09/21 13:15:33;;;;;;;2.65;0.50;;;23.10;1.00;;;;;;4991877;28;20030;-77
2022/09/21 13:18:04;;;;;;;2.42;0.60;;;23.30;1.00;;;;;;4992149;28;20026;-77
2022/09/21 13:20:40;;;;;;;5.63;0.70;;;23.30;1.00;;;;;;4993040;28;20038;-80
2022/09/21 13:23:19;;;;;;;3.30;0.47;;;23.20;1.00;;;;;;4991995;28;20015;-79
2022/09/21 13:25:57;;;;;;;3.83;0.50;;;22.90;1.00;;;;;;4992432;28;20040;-79
2022/09/21 13:28:44;;;;;;;3.42;0.63;;;23.00;1.00;;;;;;4992752;28;20030;-79
2022/09/21 13:31:41;;;;;;;2.35;0.50;;;23.00;1.00;;;;;;4973966;28;20463;-79
2022/09/21 13:34:27;;;;;;;2.38;0.50;;;22.10;1.00;;;;;;4962970;28;20116;-79
2022/09/21 13:37:14;;;;;;;2.78;0.68;;;22.30;1.00;;;;;;4973363;28;20038;-79